Dionisios Solomos — SZTM — position and weather

sailwx.info

Track history (hours):
 
Tides and Currents Weather Stations Pressure Air Temp Water Temp Dewpoint Dewpoint Depression Visibility Wind Speed Wind Dir Waves Ship Positions

Dionisios Solomos

Last reported at 2018-Feb-17 06:56 UTC. Time now 2018-Feb-18 01:26 UTC.
Position N 37°36' E 023°53'.

Length 122 m; draft 4.8 m.

Type: Cargo ship. MMSI: 239627000.

Date/timePositionNaut miles runAvg speedWind from/ knotsBaromVisibWave heightAir tempDewpointWater temp
2018-Feb-17 06:56N 37°36' E 023°53'817.5
2018-Feb-17 06:30N 37°39' E 023°45'917.3
2018-Feb-17 06:00N 37°46' E 023°39'917.6
2018-Feb-17 05:30N 37°55' E 023°37'2 3.2
2018-Feb-17 04:51N 37°57' E 023°38'0 0.0
2018-Feb-17 04:29N 37°57' E 023°38'4 7.7
2018-Feb-17 04:00N 37°53' E 023°38'917.3
2018-Feb-17 03:30N 37°45' E 023°43'816.3
2018-Feb-17 03:00N 37°40' E 023°51'4 0.3
2018-Feb-16 14:27N 37°39' E 023°46'716.8
2018-Feb-16 14:00N 37°45' E 023°40'917.4
2018-Feb-16 13:30N 37°53' E 023°37'4 5.7
2018-Feb-16 12:52N 37°57' E 023°38'0 0.0
2018-Feb-16 12:23N 37°57' E 023°38'0 0.0
2018-Feb-16 11:58N 37°57' E 023°38'0 0.0
2018-Feb-16 11:30N 37°57' E 023°38'0 0.0
2018-Feb-16 11:00N 37°57' E 023°38'0 0.0
2018-Feb-16 10:30N 37°57' E 023°38'0 0.0
2018-Feb-16 09:59N 37°57' E 023°38'0 0.0
2018-Feb-16 09:28N 37°57' E 023°38'0 0.0
2018-Feb-16 09:01N 37°57' E 023°38'0 0.0
2018-Feb-16 08:29N 37°57' E 023°38'0 0.0
2018-Feb-16 07:59N 37°57' E 023°38'0 0.0
2018-Feb-16 07:28N 37°57' E 023°38'0 0.0
2018-Feb-16 07:00N 37°57' E 023°38'0 0.0
2018-Feb-16 06:30N 37°57' E 023°38'0 0.0
2018-Feb-16 05:59N 37°57' E 023°38'0 0.0
2018-Feb-16 05:29N 37°57' E 023°38'0 0.0
2018-Feb-16 04:54N 37°57' E 023°38'0 0.0
2018-Feb-16 04:30N 37°57' E 023°38'0 0.0
2018-Feb-16 03:53N 37°57' E 023°38'0 0.0
2018-Feb-16 03:26N 37°57' E 023°38'0 0.0
2018-Feb-16 02:57N 37°57' E 023°38'0 0.0
2018-Feb-16 02:27N 37°57' E 023°38'0 0.0
2018-Feb-16 01:59N 37°57' E 023°38'0 0.0
2018-Feb-16 01:28N 37°57' E 023°38'0 0.1
2018-Feb-16 00:58N 37°57' E 023°38'0 0.1
2018-Feb-16 00:30N 37°57' E 023°38'0 0.0
2018-Feb-15 23:53N 37°57' E 023°38'0 0.0
2018-Feb-15 23:28N 37°57' E 023°38'0 0.0
2018-Feb-15 22:58N 37°57' E 023°38'0 0.0
2018-Feb-15 22:29N 37°57' E 023°38'0 0.0
2018-Feb-15 22:00N 37°57' E 023°38'0 0.0
2018-Feb-15 21:29N 37°57' E 023°38'0 0.0
2018-Feb-15 20:58N 37°57' E 023°38'0 0.0
2018-Feb-15 20:30N 37°57' E 023°38'0 0.0
2018-Feb-15 19:58N 37°57' E 023°38'0 0.0
2018-Feb-15 19:27N 37°57' E 023°38'0 0.0
2018-Feb-15 18:58N 37°57' E 023°38'0 0.0
2018-Feb-15 18:31N 37°57' E 023°38'4 8.1
2018-Feb-15 18:01N 37°53' E 023°39'816.9
2018-Feb-15 17:31N 37°45' E 023°43'916.6
2018-Feb-15 16:59N 37°39' E 023°51'1217.2
2018-Feb-15 16:19N 37°33' E 024°03'9 0.4
2018-Feb-14 14:38N 37°36' E 023°53'217.3
2018-Feb-14 14:30N 37°37' E 023°50'816.7
2018-Feb-14 14:00N 37°42' E 023°42'917.1
2018-Feb-14 13:31N 37°50' E 023°38'713.1
2018-Feb-14 13:00N 37°57' E 023°38'0 0.1
2018-Feb-14 12:28N 37°57' E 023°38'0 0.0
2018-Feb-14 11:50N 37°57' E 023°38'0 0.0
2018-Feb-14 11:30N 37°57' E 023°38'0 0.0
2018-Feb-14 10:58N 37°57' E 023°38'0 0.0
2018-Feb-14 10:29N 37°57' E 023°38'0 0.0
2018-Feb-14 10:00N 37°57' E 023°38'0 0.0
2018-Feb-14 09:29N 37°57' E 023°38'0 0.0
2018-Feb-14 08:58N 37°57' E 023°38'0 0.0
2018-Feb-14 08:28N 37°57' E 023°38'0 0.0
2018-Feb-14 07:58N 37°57' E 023°38'0 0.0
2018-Feb-14 07:30N 37°57' E 023°38'0 0.0
2018-Feb-14 06:58N 37°57' E 023°38'0 0.1
2018-Feb-14 06:28N 37°57' E 023°38'0 0.1
2018-Feb-14 05:59N 37°57' E 023°38'0 0.0
2018-Feb-14 05:29N 37°57' E 023°38'0 0.0
2018-Feb-14 04:55N 37°57' E 023°38'0 0.0
2018-Feb-14 04:28N 37°57' E 023°38'0 0.0
2018-Feb-14 03:59N 37°57' E 023°38'0 0.0
2018-Feb-14 03:29N 37°57' E 023°38'0 0.0
2018-Feb-14 03:00N 37°57' E 023°38'0 0.0
2018-Feb-14 02:28N 37°57' E 023°38'0 0.0
2018-Feb-14 01:56N 37°57' E 023°38'0 0.0
2018-Feb-14 01:30N 37°57' E 023°38'0 0.0
2018-Feb-14 01:00N 37°57' E 023°38'0 0.0
2018-Feb-14 00:29N 37°57' E 023°38'0 0.0
2018-Feb-14 00:00N 37°57' E 023°38'0 0.0
2018-Feb-13 23:29N 37°57' E 023°38'0 0.0
2018-Feb-13 22:57N 37°57' E 023°38'0 0.0
2018-Feb-13 22:29N 37°57' E 023°38'0 0.0
2018-Feb-13 21:59N 37°57' E 023°38'0 0.0
2018-Feb-13 21:28N 37°57' E 023°38'0 0.0
2018-Feb-13 20:58N 37°57' E 023°38'0 0.0
2018-Feb-13 20:29N 37°57' E 023°38'0 0.0
2018-Feb-13 19:59N 37°57' E 023°38'0 0.0
2018-Feb-13 19:29N 37°57' E 023°38'0 0.0
2018-Feb-13 18:55N 37°57' E 023°38'0 0.0
2018-Feb-13 18:28N 37°57' E 023°38'0 0.0
2018-Feb-13 17:59N 37°57' E 023°38'1 1.2
2018-Feb-13 17:30N 37°56' E 023°38'816.1
2018-Feb-13 17:00N 37°49' E 023°41'917.9
2018-Feb-13 16:31N 37°41' E 023°46'1417.8
2018-Feb-13 15:45N 37°34' E 024°01'13 0.5
2018-Feb-12 14:14N 37°39' E 023°46'416.8
2018-Feb-12 14:00N 37°41' E 023°43'917.4
2018-Feb-12 13:30N 37°49' E 023°37'715.0
2018-Feb-12 13:00N 37°57' E 023°38'0 0.2
2018-Feb-12 12:30N 37°57' E 023°38'0 0.0
2018-Feb-12 12:00N 37°57' E 023°38'0 0.0
2018-Feb-12 11:30N 37°57' E 023°38'0 0.0
2018-Feb-12 11:00N 37°57' E 023°38'0 0.0
2018-Feb-12 10:30N 37°57' E 023°38'0 0.0
2018-Feb-12 10:00N 37°57' E 023°38'0 0.0
2018-Feb-12 09:30N 37°57' E 023°38'0 0.0
2018-Feb-12 09:00N 37°57' E 023°38'0 0.0
2018-Feb-12 08:30N 37°57' E 023°38'0 0.0
2018-Feb-12 08:00N 37°57' E 023°38'0 0.0
2018-Feb-12 07:30N 37°57' E 023°38'0 0.0
2018-Feb-12 06:59N 37°57' E 023°38'0 0.0
2018-Feb-12 06:30N 37°57' E 023°38'0 0.0
2018-Feb-12 06:00N 37°57' E 023°38'0 0.0
2018-Feb-12 05:30N 37°57' E 023°38'0 0.0
2018-Feb-12 05:00N 37°57' E 023°38'0 0.0
2018-Feb-12 04:30N 37°57' E 023°38'0 0.0
2018-Feb-12 04:00N 37°57' E 023°38'0 0.0
2018-Feb-12 03:30N 37°57' E 023°38'0 0.0
2018-Feb-12 03:00N 37°57' E 023°38'0 0.0
2018-Feb-12 02:30N 37°57' E 023°38'0 0.0
2018-Feb-12 02:00N 37°57' E 023°38'0 0.0
2018-Feb-12 01:30N 37°57' E 023°38'0 0.0
2018-Feb-12 01:00N 37°57' E 023°38'0 0.0
2018-Feb-12 00:30N 37°57' E 023°38'0 0.0
2018-Feb-12 00:00N 37°57' E 023°38'3 5.5
2018-Feb-11 23:30N 37°54' E 023°38'917.0
2018-Feb-11 23:00N 37°46' E 023°43'816.3
2018-Feb-11 22:30N 37°40' E 023°49'1216.9
2018-Feb-11 21:49N 37°34' E 024°02'  
2018-Feb-09 14:01N 37°41' E 023°42'1515.4
2018-Feb-09 13:01N 37°57' E 023°38'7 0.4
2018-Feb-08 17:30N 37°50' E 023°41'917.6
2018-Feb-08 17:00N 37°42' E 023°46'16 0.5
2018-Feb-07 09:28N 37°57' E 023°38'0 0.0
2018-Feb-07 08:54N 37°57' E 023°38'0 0.0
2018-Feb-07 08:28N 37°57' E 023°38'0 0.0
2018-Feb-07 08:00N 37°57' E 023°38'0 0.0
2018-Feb-07 07:27N 37°57' E 023°38'0 0.0
2018-Feb-07 06:58N 37°57' E 023°38'  
Track history (hours):
 
Tides and Currents Weather Stations Pressure Air Temp Water Temp Dewpoint Dewpoint Depression Visibility Wind Speed Wind Dir Waves Ship Positions

Dionisios Solomos

Last reported at 2018-Feb-17 06:56 UTC. Time now 2018-Feb-18 01:26 UTC.
Position N 37°36' E 023°53'.

Length 122 m; draft 4.8 m.

Type: Cargo ship. MMSI: 239627000.

Date/timePositionNaut miles runAvg speedWind from/ knotsBaromVisibWave heightAir tempDewpointWater temp
2018-Feb-17 06:56N 37°36' E 023°53'817.5
2018-Feb-17 06:30N 37°39' E 023°45'917.3
2018-Feb-17 06:00N 37°46' E 023°39'917.6
2018-Feb-17 05:30N 37°55' E 023°37'2 3.2
2018-Feb-17 04:51N 37°57' E 023°38'0 0.0
2018-Feb-17 04:29N 37°57' E 023°38'4 7.7
2018-Feb-17 04:00N 37°53' E 023°38'917.3
2018-Feb-17 03:30N 37°45' E 023°43'816.3
2018-Feb-17 03:00N 37°40' E 023°51'4 0.3
2018-Feb-16 14:27N 37°39' E 023°46'716.8
2018-Feb-16 14:00N 37°45' E 023°40'917.4
2018-Feb-16 13:30N 37°53' E 023°37'4 5.7
2018-Feb-16 12:52N 37°57' E 023°38'0 0.0
2018-Feb-16 12:23N 37°57' E 023°38'0 0.0
2018-Feb-16 11:58N 37°57' E 023°38'0 0.0
2018-Feb-16 11:30N 37°57' E 023°38'0 0.0
2018-Feb-16 11:00N 37°57' E 023°38'0 0.0
2018-Feb-16 10:30N 37°57' E 023°38'0 0.0
2018-Feb-16 09:59N 37°57' E 023°38'0 0.0
2018-Feb-16 09:28N 37°57' E 023°38'0 0.0
2018-Feb-16 09:01N 37°57' E 023°38'0 0.0
2018-Feb-16 08:29N 37°57' E 023°38'0 0.0
2018-Feb-16 07:59N 37°57' E 023°38'0 0.0
2018-Feb-16 07:28N 37°57' E 023°38'0 0.0
2018-Feb-16 07:00N 37°57' E 023°38'0 0.0
2018-Feb-16 06:30N 37°57' E 023°38'0 0.0
2018-Feb-16 05:59N 37°57' E 023°38'0 0.0
2018-Feb-16 05:29N 37°57' E 023°38'0 0.0
2018-Feb-16 04:54N 37°57' E 023°38'0 0.0
2018-Feb-16 04:30N 37°57' E 023°38'0 0.0
2018-Feb-16 03:53N 37°57' E 023°38'0 0.0
2018-Feb-16 03:26N 37°57' E 023°38'0 0.0
2018-Feb-16 02:57N 37°57' E 023°38'0 0.0
2018-Feb-16 02:27N 37°57' E 023°38'0 0.0
2018-Feb-16 01:59N 37°57' E 023°38'0 0.0
2018-Feb-16 01:28N 37°57' E 023°38'0 0.1
2018-Feb-16 00:58N 37°57' E 023°38'0 0.1
2018-Feb-16 00:30N 37°57' E 023°38'0 0.0
2018-Feb-15 23:53N 37°57' E 023°38'0 0.0
2018-Feb-15 23:28N 37°57' E 023°38'0 0.0
2018-Feb-15 22:58N 37°57' E 023°38'0 0.0
2018-Feb-15 22:29N 37°57' E 023°38'0 0.0
2018-Feb-15 22:00N 37°57' E 023°38'0 0.0
2018-Feb-15 21:29N 37°57' E 023°38'0 0.0
2018-Feb-15 20:58N 37°57' E 023°38'0 0.0
2018-Feb-15 20:30N 37°57' E 023°38'0 0.0
2018-Feb-15 19:58N 37°57' E 023°38'0 0.0
2018-Feb-15 19:27N 37°57' E 023°38'0 0.0
2018-Feb-15 18:58N 37°57' E 023°38'0 0.0
2018-Feb-15 18:31N 37°57' E 023°38'4 8.1
2018-Feb-15 18:01N 37°53' E 023°39'816.9
2018-Feb-15 17:31N 37°45' E 023°43'916.6
2018-Feb-15 16:59N 37°39' E 023°51'1217.2
2018-Feb-15 16:19N 37°33' E 024°03'9 0.4
2018-Feb-14 14:38N 37°36' E 023°53'217.3
2018-Feb-14 14:30N 37°37' E 023°50'816.7
2018-Feb-14 14:00N 37°42' E 023°42'917.1
2018-Feb-14 13:31N 37°50' E 023°38'713.1
2018-Feb-14 13:00N 37°57' E 023°38'0 0.1
2018-Feb-14 12:28N 37°57' E 023°38'0 0.0
2018-Feb-14 11:50N 37°57' E 023°38'0 0.0
2018-Feb-14 11:30N 37°57' E 023°38'0 0.0
2018-Feb-14 10:58N 37°57' E 023°38'0 0.0
2018-Feb-14 10:29N 37°57' E 023°38'0 0.0
2018-Feb-14 10:00N 37°57' E 023°38'0 0.0
2018-Feb-14 09:29N 37°57' E 023°38'0 0.0
2018-Feb-14 08:58N 37°57' E 023°38'0 0.0
2018-Feb-14 08:28N 37°57' E 023°38'0 0.0
2018-Feb-14 07:58N 37°57' E 023°38'0 0.0
2018-Feb-14 07:30N 37°57' E 023°38'0 0.0
2018-Feb-14 06:58N 37°57' E 023°38'0 0.1
2018-Feb-14 06:28N 37°57' E 023°38'0 0.1
2018-Feb-14 05:59N 37°57' E 023°38'0 0.0
2018-Feb-14 05:29N 37°57' E 023°38'0 0.0
2018-Feb-14 04:55N 37°57' E 023°38'0 0.0
2018-Feb-14 04:28N 37°57' E 023°38'0 0.0
2018-Feb-14 03:59N 37°57' E 023°38'0 0.0
2018-Feb-14 03:29N 37°57' E 023°38'0 0.0
2018-Feb-14 03:00N 37°57' E 023°38'0 0.0
2018-Feb-14 02:28N 37°57' E 023°38'0 0.0
2018-Feb-14 01:56N 37°57' E 023°38'0 0.0
2018-Feb-14 01:30N 37°57' E 023°38'0 0.0
2018-Feb-14 01:00N 37°57' E 023°38'0 0.0
2018-Feb-14 00:29N 37°57' E 023°38'0 0.0
2018-Feb-14 00:00N 37°57' E 023°38'0 0.0
2018-Feb-13 23:29N 37°57' E 023°38'0 0.0
2018-Feb-13 22:57N 37°57' E 023°38'0 0.0
2018-Feb-13 22:29N 37°57' E 023°38'0 0.0
2018-Feb-13 21:59N 37°57' E 023°38'0 0.0
2018-Feb-13 21:28N 37°57' E 023°38'0 0.0
2018-Feb-13 20:58N 37°57' E 023°38'0 0.0
2018-Feb-13 20:29N 37°57' E 023°38'0 0.0
2018-Feb-13 19:59N 37°57' E 023°38'0 0.0
2018-Feb-13 19:29N 37°57' E 023°38'0 0.0
2018-Feb-13 18:55N 37°57' E 023°38'0 0.0
2018-Feb-13 18:28N 37°57' E 023°38'0 0.0
2018-Feb-13 17:59N 37°57' E 023°38'1 1.2
2018-Feb-13 17:30N 37°56' E 023°38'816.1
2018-Feb-13 17:00N 37°49' E 023°41'917.9
2018-Feb-13 16:31N 37°41' E 023°46'1417.8
2018-Feb-13 15:45N 37°34' E 024°01'13 0.5
2018-Feb-12 14:14N 37°39' E 023°46'416.8
2018-Feb-12 14:00N 37°41' E 023°43'917.4
2018-Feb-12 13:30N 37°49' E 023°37'715.0
2018-Feb-12 13:00N 37°57' E 023°38'0 0.2
2018-Feb-12 12:30N 37°57' E 023°38'0 0.0
2018-Feb-12 12:00N 37°57' E 023°38'0 0.0
2018-Feb-12 11:30N 37°57' E 023°38'0 0.0
2018-Feb-12 11:00N 37°57' E 023°38'0 0.0
2018-Feb-12 10:30N 37°57' E 023°38'0 0.0
2018-Feb-12 10:00N 37°57' E 023°38'0 0.0
2018-Feb-12 09:30N 37°57' E 023°38'0 0.0
2018-Feb-12 09:00N 37°57' E 023°38'0 0.0
2018-Feb-12 08:30N 37°57' E 023°38'0 0.0
2018-Feb-12 08:00N 37°57' E 023°38'0 0.0
2018-Feb-12 07:30N 37°57' E 023°38'0 0.0
2018-Feb-12 06:59N 37°57' E 023°38'0 0.0
2018-Feb-12 06:30N 37°57' E 023°38'0 0.0
2018-Feb-12 06:00N 37°57' E 023°38'0 0.0
2018-Feb-12 05:30N 37°57' E 023°38'0 0.0
2018-Feb-12 05:00N 37°57' E 023°38'0 0.0
2018-Feb-12 04:30N 37°57' E 023°38'0 0.0
2018-Feb-12 04:00N 37°57' E 023°38'0 0.0
2018-Feb-12 03:30N 37°57' E 023°38'0 0.0
2018-Feb-12 03:00N 37°57' E 023°38'0 0.0
2018-Feb-12 02:30N 37°57' E 023°38'0 0.0
2018-Feb-12 02:00N 37°57' E 023°38'0 0.0
2018-Feb-12 01:30N 37°57' E 023°38'0 0.0
2018-Feb-12 01:00N 37°57' E 023°38'0 0.0
2018-Feb-12 00:30N 37°57' E 023°38'0 0.0
2018-Feb-12 00:00N 37°57' E 023°38'3 5.5
2018-Feb-11 23:30N 37°54' E 023°38'917.0
2018-Feb-11 23:00N 37°46' E 023°43'816.3
2018-Feb-11 22:30N 37°40' E 023°49'1216.9
2018-Feb-11 21:49N 37°34' E 024°02'  
2018-Feb-09 14:01N 37°41' E 023°42'1515.4
2018-Feb-09 13:01N 37°57' E 023°38'7 0.4
2018-Feb-08 17:30N 37°50' E 023°41'917.6
2018-Feb-08 17:00N 37°42' E 023°46'16 0.5
2018-Feb-07 09:28N 37°57' E 023°38'0 0.0
2018-Feb-07 08:54N 37°57' E 023°38'0 0.0
2018-Feb-07 08:28N 37°57' E 023°38'0 0.0
2018-Feb-07 08:00N 37°57' E 023°38'0 0.0
2018-Feb-07 07:27N 37°57' E 023°38'0 0.0
2018-Feb-07 06:58N 37°57' E 023°38'  

Dump ship's entire track history